Time;durP1;ratioP1;P1;durP2;ratioP2;P2;SDS_P1;SDS_P2;PMS_P1;PMS_P2;Temp;Humidity;BMP_temperature;BMP_pressure;BME280_temperature;BME280_humidity;BME280_pressure;Samples;Min_cycle;Max_cycle;Signal;HPM_P1;HPM_P2
2021/12/16 00:08:17;;;;;;;35.22;19.67;;;7.10;73.50;;;;;;5098768;28;20031;-49
2021/12/16 00:10:54;;;;;;;32.78;18.95;;;7.10;73.50;;;;;;5098108;28;20032;-52
2021/12/16 00:32:35;;;;;;;33.08;19.08;;;6.80;74.00;;;;;;5098456;28;20391;-52
2021/12/16 00:35:02;;;;;;;32.13;17.80;;;6.90;74.00;;;;;;5097953;28;20034;-51
2021/12/16 00:37:28;;;;;;;36.22;19.98;;;6.90;74.00;;;;;;5097962;28;20878;-51
2021/12/16 00:39:54;;;;;;;35.05;20.08;;;6.90;73.70;;;;;;5097792;28;20574;-50
2021/12/16 00:47:54;;;;;;;33.53;19.65;;;6.90;73.80;;;;;;5098399;28;20063;-48
2021/12/16 00:55:51;;;;;;;34.90;19.42;;;6.90;73.60;;;;;;5098232;28;20067;-50
2021/12/16 00:58:22;;;;;;;38.25;21.17;;;6.80;73.60;;;;;;5097556;28;20114;-51
2021/12/16 01:00:57;;;;;;;35.42;20.92;;;6.80;73.60;;;;;;5097739;28;20103;-50
2021/12/16 01:03:42;;;;;;;34.63;20.52;;;6.80;73.70;;;;;;5097998;28;20464;-50
2021/12/16 01:33:49;;;;;;;35.78;19.83;;;6.60;73.90;;;;;;5101240;28;20038;-50
2021/12/16 01:54:53;;;;;;;37.03;20.05;;;6.50;74.10;;;;;;5101223;28;20483;-49
2021/12/16 01:57:28;;;;;;;34.83;19.67;;;6.50;73.90;;;;;;5101140;28;20475;-51
2021/12/16 02:00:01;;;;;;;33.80;19.70;;;6.50;73.90;;;;;;5100854;28;20016;-48
2021/12/16 02:02:45;;;;;;;34.67;20.05;;;6.50;74.00;;;;;;5100901;28;20031;-48
2021/12/16 02:05:29;;;;;;;33.67;19.85;;;6.50;73.80;;;;;;5100982;28;20020;-50
2021/12/16 02:10:37;;;;;;;32.60;18.75;;;6.40;73.90;;;;;;5100946;28;20028;-49
2021/12/16 02:13:36;;;;;;;36.15;19.60;;;6.40;73.90;;;;;;5100482;28;20036;-50
2021/12/16 02:35:30;;;;;;;29.52;16.80;;;6.40;74.20;;;;;;5100379;28;20055;-53
2021/12/16 02:37:58;;;;;;;31.25;16.85;;;6.40;74.00;;;;;;5099197;28;20032;-50
2021/12/16 02:40:25;;;;;;;31.90;17.08;;;6.40;74.00;;;;;;5099964;28;20016;-49
2021/12/16 02:42:58;;;;;;;32.60;17.55;;;6.40;74.10;;;;;;5100326;28;20162;-49
2021/12/16 02:48:31;;;;;;;30.67;17.60;;;6.30;74.00;;;;;;5100328;28;20099;-56
2021/12/16 02:51:04;;;;;;;29.75;16.13;;;6.30;74.10;;;;;;5100108;28;20024;-51
2021/12/16 02:53:30;;;;;;;31.23;17.15;;;6.30;74.20;;;;;;5099633;28;20063;-49
2021/12/16 02:55:57;;;;;;;31.15;17.42;;;6.30;74.40;;;;;;5099943;28;20037;-52
2021/12/16 02:58:23;;;;;;;31.75;17.50;;;6.30;74.40;;;;;;5099759;28;20042;-52
2021/12/16 03:00:57;;;;;;;35.15;19.00;;;6.30;74.30;;;;;;5099437;28;20024;-48
2021/12/16 03:03:23;;;;;;;31.38;17.55;;;6.40;74.30;;;;;;5099403;28;20028;-48
2021/12/16 03:05:49;;;;;;;31.92;17.90;;;6.40;74.40;;;;;;5099776;28;20047;-52
2021/12/16 03:08:15;;;;;;;32.45;18.35;;;6.40;74.20;;;;;;5099549;28;20069;-51
2021/12/16 03:13:47;;;;;;;29.50;16.85;;;6.40;74.30;;;;;;5099837;28;20035;-51
2021/12/16 03:16:40;;;;;;;28.45;16.80;;;6.40;74.50;;;;;;5099183;28;20043;-51
2021/12/16 03:21:33;;;;;;;30.50;16.10;;;6.40;74.30;;;;;;5099251;28;20364;-52
2021/12/16 03:30:19;;;;;;;27.60;15.57;;;6.40;74.40;;;;;;5099457;28;20584;-50
2021/12/16 03:35:28;;;;;;;26.83;14.20;;;6.40;74.10;;;;;;5099644;28;20035;-50
2021/12/16 03:37:58;;;;;;;26.38;14.88;;;6.40;74.10;;;;;;5099079;28;20052;-50
2021/12/16 03:40:26;;;;;;;24.83;14.88;;;6.40;74.00;;;;;;5098900;28;20383;-52
2021/12/16 03:43:14;;;;;;;24.77;14.15;;;6.40;74.10;;;;;;5098922;28;20039;-51
2021/12/16 03:49:02;;;;;;;21.98;12.63;;;6.40;74.10;;;;;;5098608;28;20023;-51
2021/12/16 03:51:37;;;;;;;22.55;12.40;;;6.30;74.00;;;;;;5099390;28;20036;-51
2021/12/16 03:54:14;;;;;;;21.98;12.77;;;6.30;73.80;;;;;;5098961;28;20066;-50
2021/12/16 03:56:41;;;;;;;23.30;12.73;;;6.30;74.00;;;;;;5099093;28;20020;-51
2021/12/16 03:59:09;;;;;;;24.90;15.18;;;6.30;74.20;;;;;;5098712;28;20032;-49
2021/12/16 04:01:35;;;;;;;26.17;14.85;;;6.30;74.20;;;;;;5098689;28;20020;-50
2021/12/16 04:04:02;;;;;;;23.40;13.20;;;6.30;74.00;;;;;;5098729;28;20549;-50
2021/12/16 04:06:31;;;;;;;22.45;12.43;;;6.40;74.20;;;;;;5097035;28;20579;-49
2021/12/16 04:08:58;;;;;;;21.98;12.52;;;6.30;74.10;;;;;;5098652;28;20020;-50
2021/12/16 04:11:38;;;;;;;20.35;12.13;;;6.40;74.00;;;;;;5098628;28;20017;-49
2021/12/16 04:14:05;;;;;;;20.95;11.63;;;6.30;74.10;;;;;;5098154;28;20028;-51
2021/12/16 04:16:55;;;;;;;19.35;12.00;;;6.30;74.10;;;;;;5098408;28;20031;-49
2021/12/16 04:19:27;;;;;;;24.13;13.20;;;6.30;74.20;;;;;;5092360;28;20051;-49
2021/12/16 04:21:59;;;;;;;23.55;12.73;;;6.30;74.30;;;;;;5098513;28;20399;-52
2021/12/16 04:24:25;;;;;;;19.63;12.35;;;6.40;74.20;;;;;;5098390;28;20035;-51
2021/12/16 04:26:53;;;;;;;22.52;13.20;;;6.30;74.00;;;;;;5098153;28;20069;-54
2021/12/16 04:29:22;;;;;;;22.85;12.57;;;6.30;74.20;;;;;;5098183;28;20387;-52
2021/12/16 04:31:48;;;;;;;22.40;12.98;;;6.30;74.20;;;;;;5097984;28;20069;-51
2021/12/16 04:34:13;;;;;;;22.13;12.88;;;6.30;74.30;;;;;;5098222;28;20020;-53
2021/12/16 04:36:39;;;;;;;20.92;12.13;;;6.40;74.20;;;;;;5098198;28;20075;-48
2021/12/16 04:39:11;;;;;;;21.13;12.32;;;6.40;74.20;;;;;;5098455;28;20067;-55
2021/12/16 04:41:37;;;;;;;19.80;11.43;;;6.40;74.20;;;;;;5097892;28;20057;-49
2021/12/16 04:44:08;;;;;;;21.42;12.45;;;6.40;74.10;;;;;;5098410;28;20108;-51
2021/12/16 04:46:34;;;;;;;23.27;11.38;;;6.40;74.00;;;;;;5097936;28;20046;-53
2021/12/16 04:49:01;;;;;;;19.50;12.02;;;6.40;74.10;;;;;;5097959;28;20405;-52
2021/12/16 04:51:30;;;;;;;19.30;10.80;;;6.40;74.10;;;;;;5098059;28;20146;-50
2021/12/16 04:53:56;;;;;;;21.45;11.80;;;6.40;74.20;;;;;;5097859;28;20077;-48
2021/12/16 04:56:22;;;;;;;21.60;12.25;;;6.40;74.20;;;;;;5097773;28;20030;-49
2021/12/16 04:58:50;;;;;;;20.58;11.77;;;6.30;74.10;;;;;;5097794;28;20057;-51
2021/12/16 05:01:17;;;;;;;19.90;11.02;;;6.40;74.20;;;;;;5101789;28;20020;-50
2021/12/16 05:03:44;;;;;;;17.85;11.00;;;6.30;74.20;;;;;;5102243;28;20028;-49
2021/12/16 05:06:11;;;;;;;18.17;11.15;;;6.30;74.10;;;;;;5101891;28;20031;-52
2021/12/16 05:08:38;;;;;;;17.55;10.25;;;6.40;74.10;;;;;;5101672;28;20053;-52
2021/12/16 05:11:09;;;;;;;18.02;10.07;;;6.30;74.10;;;;;;5101799;28;20035;-53
2021/12/16 05:13:36;;;;;;;18.67;11.25;;;6.30;74.10;;;;;;5101972;28;20036;-52
2021/12/16 05:16:04;;;;;;;17.08;10.05;;;6.30;74.10;;;;;;5101928;28;20039;-55
2021/12/16 05:18:34;;;;;;;17.65;10.50;;;6.30;74.10;;;;;;5101622;28;20419;-48
2021/12/16 05:21:36;;;;;;;18.05;11.25;;;6.30;74.20;;;;;;5101788;28;20020;-49
2021/12/16 05:27:03;;;;;;;21.67;12.25;;;6.30;74.10;;;;;;5067479;28;20063;-53
2021/12/16 05:29:28;;;;;;;19.75;11.35;;;6.30;74.20;;;;;;5101695;28;20024;-48
2021/12/16 05:31:55;;;;;;;18.67;10.63;;;6.30;74.00;;;;;;5101624;28;20115;-49
2021/12/16 05:34:22;;;;;;;21.00;11.52;;;6.30;74.10;;;;;;5101394;28;20028;-49
2021/12/16 05:36:47;;;;;;;17.75;10.60;;;6.30;74.10;;;;;;5101418;28;20017;-52
2021/12/16 05:39:15;;;;;;;17.48;9.45;;;6.20;74.10;;;;;;5101501;28;20027;-47
2021/12/16 05:41:41;;;;;;;17.38;10.70;;;6.20;74.20;;;;;;5101464;28;20048;-50
2021/12/16 05:44:08;;;;;;;14.43;9.25;;;6.20;74.30;;;;;;5101262;28;20498;-48
2021/12/16 05:46:34;;;;;;;19.13;10.95;;;6.20;74.70;;;;;;5101262;28;20020;-50
2021/12/16 05:49:02;;;;;;;16.92;10.23;;;6.30;74.20;;;;;;5101364;28;20099;-51
2021/12/16 05:51:32;;;;;;;17.67;9.82;;;6.30;74.10;;;;;;5101280;28;20067;-50
2021/12/16 05:54:01;;;;;;;15.05;9.73;;;6.30;74.10;;;;;;5100976;28;20028;-50
2021/12/16 05:56:27;;;;;;;16.38;8.35;;;6.30;74.10;;;;;;5100771;28;20024;-49
2021/12/16 05:58:53;;;;;;;16.85;9.88;;;6.20;74.20;;;;;;5100950;28;20487;-56
2021/12/16 06:01:27;;;;;;;18.77;11.07;;;6.20;74.40;;;;;;5100271;28;20059;-49
2021/12/16 06:03:53;;;;;;;19.77;11.38;;;6.20;74.30;;;;;;5101119;28;20023;-53
2021/12/16 06:06:20;;;;;;;16.58;8.98;;;6.30;74.20;;;;;;5100870;28;20107;-51
2021/12/16 06:08:47;;;;;;;18.23;9.68;;;6.20;74.30;;;;;;5100955;28;20028;-49
2021/12/16 06:13:46;;;;;;;16.77;10.13;;;6.20;74.30;;;;;;5101037;28;20074;-51
2021/12/16 06:27:14;;;;;;;18.40;9.23;;;6.20;74.20;;;;;;5101113;28;20552;-49
2021/12/16 06:29:45;;;;;;;19.63;10.43;;;6.20;74.30;;;;;;5100360;28;20115;-52
2021/12/16 06:32:11;;;;;;;20.95;10.82;;;6.20;74.10;;;;;;5100205;28;20028;-51
2021/12/16 06:34:37;;;;;;;15.43;8.68;;;6.10;74.30;;;;;;5100506;28;20054;-50
2021/12/16 06:37:04;;;;;;;14.75;9.70;;;6.10;74.40;;;;;;5100397;28;20024;-48
2021/12/16 06:39:31;;;;;;;19.27;10.10;;;6.10;74.40;;;;;;5100162;28;20027;-50
2021/12/16 06:41:58;;;;;;;15.80;9.60;;;6.20;74.60;;;;;;5100179;28;20086;-52
2021/12/16 06:44:29;;;;;;;16.13;9.50;;;6.10;74.60;;;;;;5100263;28;20426;-50
2021/12/16 06:47:02;;;;;;;16.17;9.00;;;6.20;74.50;;;;;;5100059;28;20027;-50
2021/12/16 06:49:30;;;;;;;18.67;10.73;;;6.20;74.40;;;;;;5099740;28;20035;-49
2021/12/16 06:52:03;;;;;;;19.20;10.40;;;6.10;74.30;;;;;;5099835;28;20027;-49
2021/12/16 06:54:35;;;;;;;18.70;9.70;;;6.10;74.50;;;;;;5100291;28;20028;-49
2021/12/16 06:59:38;;;;;;;16.02;9.25;;;6.20;74.50;;;;;;5099755;28;20024;-48
2021/12/16 07:02:12;;;;;;;16.05;9.18;;;6.10;74.60;;;;;;5099499;28;20020;-50
2021/12/16 07:04:38;;;;;;;20.13;10.73;;;6.10;74.60;;;;;;5099765;28;20031;-57
2021/12/16 07:07:07;;;;;;;17.20;9.57;;;6.10;74.50;;;;;;5099776;28;20027;-50
2021/12/16 07:09:34;;;;;;;17.88;9.75;;;6.10;74.50;;;;;;5100403;28;20028;-54
2021/12/16 07:12:00;;;;;;;18.52;10.35;;;6.10;74.50;;;;;;5099998;28;20032;-49
2021/12/16 07:14:38;;;;;;;18.63;10.48;;;6.10;74.40;;;;;;5099651;28;20032;-50
2021/12/16 07:17:16;;;;;;;17.38;10.38;;;6.10;74.60;;;;;;5099481;28;20054;-49
2021/12/16 07:19:44;;;;;;;21.55;12.40;;;6.10;74.60;;;;;;5098992;28;20044;-57
2021/12/16 07:22:11;;;;;;;24.13;12.35;;;6.10;74.50;;;;;;5098794;28;20429;-51
2021/12/16 07:24:38;;;;;;;18.90;10.88;;;6.10;74.40;;;;;;5099516;28;20418;-49
2021/12/16 07:27:05;;;;;;;22.85;12.07;;;6.10;74.60;;;;;;5099575;28;20024;-48
2021/12/16 07:29:31;;;;;;;20.70;11.73;;;6.00;74.60;;;;;;5099151;28;20023;-49
2021/12/16 07:31:59;;;;;;;20.15;11.98;;;6.00;74.50;;;;;;5099098;28;20035;-50
2021/12/16 07:34:25;;;;;;;18.45;10.73;;;6.00;74.60;;;;;;5099299;28;20069;-52
2021/12/16 07:36:51;;;;;;;20.65;11.48;;;6.00;74.60;;;;;;5099080;28;20028;-52
2021/12/16 07:39:26;;;;;;;20.58;11.00;;;6.00;74.40;;;;;;5099019;28;20024;-48
2021/12/16 07:41:53;;;;;;;22.42;11.52;;;6.00;74.40;;;;;;5098699;28;20024;-48
2021/12/16 07:44:19;;;;;;;23.15;12.77;;;6.00;74.60;;;;;;5098817;28;20027;-49
2021/12/16 07:46:59;;;;;;;22.27;12.25;;;6.00;74.50;;;;;;5098869;28;20072;-52
2021/12/16 07:49:31;;;;;;;21.92;12.32;;;6.00;74.60;;;;;;5099025;28;20024;-49
2021/12/16 07:51:58;;;;;;;27.48;13.10;;;6.00;74.60;;;;;;5098875;28;20383;-49
2021/12/16 07:54:25;;;;;;;22.75;12.55;;;6.00;74.50;;;;;;5098762;28;20050;-50
2021/12/16 07:56:55;;;;;;;22.10;12.27;;;6.00;74.60;;;;;;5098868;28;20016;-51
2021/12/16 07:59:21;;;;;;;19.27;10.98;;;6.00;74.80;;;;;;5098810;28;20024;-48
2021/12/16 08:01:48;;;;;;;20.35;10.45;;;6.00;74.70;;;;;;5098700;28;20028;-49
2021/12/16 08:04:20;;;;;;;18.63;10.93;;;6.00;74.60;;;;;;5099011;28;20035;-50
2021/12/16 08:06:49;;;;;;;18.48;10.73;;;6.00;74.70;;;;;;5098579;28;20073;-50
2021/12/16 08:09:15;;;;;;;19.98;10.68;;;6.00;75.20;;;;;;5098555;28;20498;-48
2021/12/16 08:11:43;;;;;;;17.65;9.52;;;6.00;74.50;;;;;;5098797;28;20028;-50
2021/12/16 08:14:09;;;;;;;16.75;9.15;;;6.00;74.60;;;;;;5098335;28;20059;-52
2021/12/16 08:16:36;;;;;;;18.25;10.15;;;6.00;74.60;;;;;;5098537;28;20077;-49
2021/12/16 08:19:03;;;;;;;19.75;10.57;;;6.00;74.40;;;;;;5098177;28;20063;-48
2021/12/16 08:21:29;;;;;;;16.73;10.32;;;6.00;74.60;;;;;;5098159;28;20040;-51
2021/12/16 08:24:00;;;;;;;19.98;10.73;;;6.00;74.30;;;;;;5098026;28;20035;-50
2021/12/16 08:26:28;;;;;;;18.88;10.55;;;5.90;74.60;;;;;;5098421;28;20020;-50
2021/12/16 08:28:54;;;;;;;19.17;10.65;;;5.90;74.70;;;;;;5098162;28;20042;-48
2021/12/16 08:31:20;;;;;;;19.83;10.70;;;6.00;74.60;;;;;;5098584;28;20020;-52
2021/12/16 08:33:47;;;;;;;18.90;10.90;;;6.00;74.60;;;;;;5097597;28;20028;-48
2021/12/16 08:36:13;;;;;;;22.38;12.07;;;6.00;74.60;;;;;;5097967;28;20487;-61
2021/12/16 08:38:39;;;;;;;18.13;10.32;;;6.10;74.80;;;;;;5098259;28;20032;-54
2021/12/16 08:41:10;;;;;;;19.70;12.10;;;6.10;74.90;;;;;;5097911;28;20094;-51
2021/12/16 08:43:39;;;;;;;20.30;10.52;;;6.10;74.60;;;;;;5098302;28;20043;-50
2021/12/16 08:46:05;;;;;;;19.15;9.82;;;6.20;74.60;;;;;;5098386;28;20027;-49
2021/12/16 08:48:31;;;;;;;18.17;9.77;;;6.20;74.70;;;;;;5098129;28;20043;-53
2021/12/16 08:50:57;;;;;;;18.13;10.70;;;6.20;74.70;;;;;;5098037;28;20031;-54
2021/12/16 08:53:23;;;;;;;16.33;9.07;;;6.20;74.70;;;;;;5097807;28;20073;-50
2021/12/16 08:55:51;;;;;;;16.75;9.38;;;6.20;74.80;;;;;;5097823;28;20448;-51
2021/12/16 08:58:17;;;;;;;17.73;10.02;;;6.20;74.60;;;;;;5097782;28;20035;-56
2021/12/16 09:00:51;;;;;;;16.73;9.30;;;6.30;74.60;;;;;;5097883;28;20486;-49
2021/12/16 09:03:17;;;;;;;17.38;10.18;;;6.20;74.50;;;;;;5098006;28;20020;-51
2021/12/16 09:05:43;;;;;;;19.23;11.68;;;6.30;74.60;;;;;;5097635;28;20031;-50
2021/12/16 09:08:10;;;;;;;16.30;9.98;;;6.30;74.60;;;;;;5097711;28;20024;-50
2021/12/16 09:10:37;;;;;;;18.95;10.45;;;6.30;74.70;;;;;;5097690;28;20100;-51
2021/12/16 09:13:09;;;;;;;14.50;8.77;;;6.40;74.80;;;;;;5097463;28;20111;-48
2021/12/16 09:15:49;;;;;;;13.70;8.15;;;6.40;74.80;;;;;;5097421;28;20020;-51
2021/12/16 09:18:18;;;;;;;14.98;8.85;;;6.40;74.70;;;;;;5097643;28;20048;-51
2021/12/16 09:20:44;;;;;;;13.48;7.55;;;6.50;74.70;;;;;;5097503;28;20028;-49
2021/12/16 09:23:11;;;;;;;13.70;8.00;;;6.40;74.50;;;;;;5097587;28;20035;-56
2021/12/16 09:25:39;;;;;;;13.77;8.32;;;6.50;74.70;;;;;;5097544;28;20042;-50
2021/12/16 09:28:05;;;;;;;15.85;8.90;;;6.50;74.70;;;;;;5097697;28;20029;-51
2021/12/16 09:30:31;;;;;;;16.73;9.48;;;6.50;74.60;;;;;;5097712;28;20028;-51
2021/12/16 09:33:00;;;;;;;13.15;8.10;;;6.50;74.50;;;;;;5097580;28;20031;-49
2021/12/16 09:35:28;;;;;;;13.95;8.48;;;6.60;74.60;;;;;;5097240;28;20107;-50
2021/12/16 09:37:55;;;;;;;15.30;8.75;;;6.60;74.70;;;;;;5097403;28;20024;-52
2021/12/16 09:40:25;;;;;;;14.77;8.63;;;6.60;74.70;;;;;;5097634;28;20055;-50
2021/12/16 09:42:53;;;;;;;14.18;8.48;;;6.60;74.80;;;;;;5097133;28;20050;-48
2021/12/16 09:45:21;;;;;;;13.48;8.23;;;6.70;74.70;;;;;;5098022;28;20035;-49
2021/12/16 09:47:48;;;;;;;14.07;8.82;;;6.70;74.70;;;;;;5101135;28;20031;-48
2021/12/16 09:50:18;;;;;;;15.05;8.90;;;6.80;74.60;;;;;;5100980;28;20083;-48
2021/12/16 09:52:44;;;;;;;14.25;8.63;;;6.80;74.50;;;;;;5099686;28;20372;-48
2021/12/16 09:55:10;;;;;;;13.88;8.27;;;6.80;74.50;;;;;;5099638;28;20027;-49
2021/12/16 09:57:36;;;;;;;13.77;8.60;;;6.80;74.50;;;;;;5100167;28;20028;-48
2021/12/16 10:00:09;;;;;;;14.57;8.82;;;6.90;74.50;;;;;;5100830;28;20483;-48
2021/12/16 10:02:35;;;;;;;12.55;7.40;;;6.90;74.40;;;;;;5101013;28;20447;-48
2021/12/16 10:05:04;;;;;;;12.68;7.35;;;6.90;74.30;;;;;;5101119;28;20020;-48
2021/12/16 10:07:33;;;;;;;12.88;7.82;;;6.90;74.20;;;;;;5100933;28;20031;-49
2021/12/16 10:10:04;;;;;;;13.95;8.25;;;6.90;74.30;;;;;;5100658;28;20039;-47
2021/12/16 10:12:35;;;;;;;15.45;8.95;;;6.90;74.40;;;;;;5099192;28;20540;-48
2021/12/16 10:15:08;;;;;;;13.90;8.18;;;7.00;74.40;;;;;;5098585;28;20075;-48
2021/12/16 10:17:40;;;;;;;14.73;8.73;;;7.00;74.30;;;;;;5098688;28;20039;-49
2021/12/16 10:20:15;;;;;;;14.02;8.43;;;7.00;74.40;;;;;;5098816;28;20032;-55
2021/12/16 10:22:43;;;;;;;14.80;8.52;;;7.00;74.40;;;;;;5098803;28;20028;-48
2021/12/16 10:25:22;;;;;;;13.27;8.68;;;7.00;74.40;;;;;;5098792;28;20020;-48
2021/12/16 10:28:25;;;;;;;14.27;8.23;;;7.10;74.40;;;;;;5100430;28;20024;-48
2021/12/16 10:31:00;;;;;;;14.30;8.00;;;7.10;74.40;;;;;;5098156;28;20487;-50
2021/12/16 10:33:43;;;;;;;13.85;8.95;;;7.20;74.20;;;;;;5100362;28;20475;-49
2021/12/16 10:36:17;;;;;;;14.23;8.05;;;7.20;74.30;;;;;;5100322;28;20027;-48
2021/12/16 10:38:47;;;;;;;14.88;8.10;;;7.20;74.30;;;;;;5100651;28;20483;-48
2021/12/16 10:41:21;;;;;;;14.27;8.27;;;7.20;74.30;;;;;;5100031;28;20036;-49
2021/12/16 10:43:55;;;;;;;14.30;8.82;;;7.20;74.10;;;;;;5100229;28;20046;-51
2021/12/16 10:46:28;;;;;;;14.85;8.55;;;7.20;74.20;;;;;;5100103;28;20380;-48
2021/12/16 10:49:01;;;;;;;15.32;8.77;;;7.30;74.20;;;;;;5100185;28;20020;-50
2021/12/16 10:51:31;;;;;;;14.98;8.52;;;7.30;74.30;;;;;;5100023;28;20032;-51
2021/12/16 10:54:02;;;;;;;16.88;9.63;;;7.30;74.20;;;;;;5100079;28;20023;-48
2021/12/16 10:56:42;;;;;;;16.70;9.20;;;7.30;74.10;;;;;;5099768;28;20028;-48
2021/12/16 10:59:19;;;;;;;16.88;9.88;;;7.30;74.30;;;;;;5099220;28;20032;-48
2021/12/16 11:01:56;;;;;;;15.88;8.90;;;7.40;74.30;;;;;;5099891;28;20031;-49
2021/12/16 11:04:30;;;;;;;15.20;8.48;;;7.40;74.20;;;;;;5099710;28;20016;-48
2021/12/16 11:07:07;;;;;;;14.43;9.00;;;7.50;74.20;;;;;;5099656;28;20027;-47
2021/12/16 11:09:41;;;;;;;15.90;9.35;;;7.50;74.20;;;;;;5099405;28;20024;-48
2021/12/16 11:12:14;;;;;;;16.13;9.48;;;7.50;74.10;;;;;;5099765;28;20020;-47
2021/12/16 11:14:47;;;;;;;16.47;9.33;;;7.50;74.00;;;;;;5099281;28;20020;-49
2021/12/16 11:17:17;;;;;;;15.18;9.52;;;7.50;74.10;;;;;;5099161;28;20024;-48
2021/12/16 11:19:54;;;;;;;15.65;9.60;;;7.50;74.10;;;;;;5098831;28;20093;-48
2021/12/16 11:22:29;;;;;;;15.38;9.52;;;7.50;74.20;;;;;;5099361;28;20023;-48
2021/12/16 11:24:55;;;;;;;;;;;7.50;74.20;;;;;;5099802;28;20536;-54
2021/12/16 11:27:31;;;;;;;15.88;9.32;;;7.60;74.20;;;;;;5099504;28;20406;-48
2021/12/16 11:30:17;;;;;;;17.70;10.70;;;7.60;74.40;;;;;;5099422;28;20020;-48
2021/12/16 11:32:46;;;;;;;17.33;9.88;;;7.60;74.30;;;;;;5099120;28;20060;-48
2021/12/16 11:35:30;;;;;;;16.35;9.57;;;7.70;74.30;;;;;;5099283;28;20106;-49
2021/12/16 11:38:01;;;;;;;17.52;10.40;;;7.80;74.30;;;;;;5098282;28;20036;-52
2021/12/16 11:40:27;;;;;;;18.27;10.90;;;7.80;74.20;;;;;;5098524;28;20060;-49
2021/12/16 11:43:04;;;;;;;17.30;9.82;;;7.80;74.20;;;;;;5098703;28;20063;-50
2021/12/16 11:45:37;;;;;;;19.80;10.77;;;7.90;74.20;;;;;;5098834;28;20027;-50
2021/12/16 11:48:06;;;;;;;20.20;11.88;;;8.00;74.00;;;;;;5098599;28;20024;-51
2021/12/16 11:50:41;;;;;;;16.10;9.85;;;7.90;74.10;;;;;;5098423;28;20024;-50
2021/12/16 11:53:09;;;;;;;18.10;10.60;;;8.00;73.90;;;;;;5097801;28;20039;-49
2021/12/16 11:55:37;;;;;;;19.25;10.98;;;8.00;73.80;;;;;;5098202;28;20053;-51
2021/12/16 11:58:05;;;;;;;20.25;10.65;;;8.00;73.80;;;;;;5098709;28;20024;-48
2021/12/16 12:00:35;;;;;;;17.85;10.18;;;8.00;73.60;;;;;;5098104;28;20033;-53
2021/12/16 12:03:08;;;;;;;21.38;12.20;;;8.00;73.80;;;;;;5098255;28;20022;-50
2021/12/16 12:05:53;;;;;;;20.65;11.75;;;8.00;73.80;;;;;;5098246;28;20096;-49
2021/12/16 12:08:26;;;;;;;20.17;11.30;;;8.00;73.80;;;;;;5098403;28;20024;-49
2021/12/16 12:11:16;;;;;;;20.95;12.13;;;8.00;73.90;;;;;;5097882;28;20081;-50
2021/12/16 12:14:13;;;;;;;20.35;11.60;;;8.00;74.10;;;;;;5098384;28;20020;-51
2021/12/16 12:16:42;;;;;;;20.35;12.00;;;8.10;74.00;;;;;;5095697;28;20055;-49
2021/12/16 12:19:13;;;;;;;21.25;11.98;;;8.10;73.80;;;;;;5097902;28;20048;-49
2021/12/16 12:21:40;;;;;;;20.33;11.52;;;8.10;73.70;;;;;;5098009;28;20077;-49
2021/12/16 12:24:36;;;;;;;22.58;12.95;;;8.10;73.70;;;;;;5097878;28;20053;-49
2021/12/16 12:27:27;;;;;;;22.10;12.85;;;8.10;73.90;;;;;;5097678;28;20020;-50
2021/12/16 12:29:57;;;;;;;23.05;13.25;;;8.20;74.10;;;;;;5098118;28;20028;-49
2021/12/16 12:32:25;;;;;;;23.90;12.85;;;8.30;74.00;;;;;;5098001;28;20062;-49
2021/12/16 12:35:12;;;;;;;25.50;14.02;;;8.40;73.80;;;;;;5097707;28;20031;-49
2021/12/16 12:37:41;;;;;;;24.08;12.10;;;8.40;73.60;;;;;;5097889;28;20462;-50
2021/12/16 12:40:16;;;;;;;22.67;12.70;;;8.40;73.50;;;;;;5097984;28;20032;-53
2021/12/16 12:42:43;;;;;;;23.13;13.02;;;8.30;73.50;;;;;;5097846;28;20024;-50
2021/12/16 12:45:14;;;;;;;19.75;11.85;;;8.30;73.40;;;;;;5097792;28;20024;-49
2021/12/16 12:47:44;;;;;;;22.65;12.93;;;8.30;73.30;;;;;;5097747;28;20030;-49
2021/12/16 12:50:13;;;;;;;22.92;13.05;;;8.40;73.50;;;;;;5097609;28;20075;-52
2021/12/16 12:52:39;;;;;;;21.67;12.55;;;8.40;73.60;;;;;;5097707;28;20073;-51
2021/12/16 12:55:12;;;;;;;22.58;12.70;;;8.40;73.60;;;;;;5097115;28;20050;-51
2021/12/16 12:57:40;;;;;;;23.08;13.52;;;8.50;73.70;;;;;;5096467;28;20027;-51
2021/12/16 13:00:23;;;;;;;22.85;12.73;;;8.50;73.80;;;;;;5097432;28;20471;-49
2021/12/16 13:02:57;;;;;;;24.15;14.05;;;8.60;73.90;;;;;;5097795;28;20035;-54
2021/12/16 13:05:23;;;;;;;24.23;14.07;;;8.60;74.00;;;;;;5097518;28;20077;-53
2021/12/16 13:08:00;;;;;;;23.55;12.95;;;8.70;73.90;;;;;;5097638;28;20792;-50
2021/12/16 13:10:37;;;;;;;22.67;13.65;;;8.80;74.20;;;;;;5097325;28;20111;-50
2021/12/16 13:13:43;;;;;;;22.13;13.40;;;8.80;73.30;;;;;;5097328;28;20095;-49
2021/12/16 13:27:42;;;;;;;25.23;14.20;;;8.80;73.50;;;;;;5101513;28;20085;-49
2021/12/16 13:32:49;;;;;;;24.88;14.50;;;8.80;73.50;;;;;;5100172;28;20058;-56
2021/12/16 13:37:51;;;;;;;25.25;14.38;;;8.80;73.30;;;;;;5101271;28;20491;-50
2021/12/16 13:40:30;;;;;;;26.67;15.25;;;8.80;73.20;;;;;;5101110;28;20020;-53
2021/12/16 13:43:01;;;;;;;21.05;13.15;;;8.80;73.30;;;;;;5101151;28;20024;-50
2021/12/16 13:45:43;;;;;;;23.38;12.57;;;8.80;73.10;;;;;;5100633;28;20022;-51
2021/12/16 13:48:38;;;;;;;21.85;13.32;;;8.90;73.40;;;;;;5101266;28;20028;-51
2021/12/16 14:02:50;;;;;;;26.85;15.32;;;9.10;73.20;;;;;;5100295;28;20028;-53
2021/12/16 14:07:55;;;;;;;22.77;13.38;;;9.10;73.10;;;;;;5100691;28;20028;-50
2021/12/16 14:10:42;;;;;;;21.90;12.93;;;9.10;73.00;;;;;;5100804;28;20020;-52
2021/12/16 14:46:46;;;;;;;19.70;12.43;;;8.80;73.00;;;;;;5100069;28;20031;-52
2021/12/16 14:49:12;;;;;;;16.48;10.52;;;8.80;73.10;;;;;;5099440;28;20023;-53
2021/12/16 14:51:38;;;;;;;17.83;11.45;;;8.80;73.10;;;;;;5099592;28;20024;-49
2021/12/16 14:54:04;;;;;;;18.42;11.50;;;8.70;73.20;;;;;;5099721;28;20055;-50
2021/12/16 14:56:37;;;;;;;18.33;11.35;;;8.80;73.30;;;;;;5099540;28;20024;-52
2021/12/16 14:59:13;;;;;;;22.67;14.88;;;8.80;73.40;;;;;;5099580;28;20024;-52
2021/12/16 15:01:47;;;;;;;18.00;11.48;;;8.80;73.20;;;;;;5099390;28;20035;-50
2021/12/16 15:04:19;;;;;;;18.75;11.13;;;8.80;73.30;;;;;;5099538;28;20472;-50
2021/12/16 15:06:56;;;;;;;16.58;10.88;;;8.80;73.20;;;;;;5099088;28;20020;-50
2021/12/16 15:09:36;;;;;;;16.75;11.23;;;8.80;73.10;;;;;;5099275;28;20494;-50
2021/12/16 15:12:40;;;;;;;16.08;10.35;;;8.80;73.10;;;;;;5099048;28;20040;-51
2021/12/16 15:40:14;;;;;;;16.45;9.57;;;8.30;73.30;;;;;;5098527;28;20515;-50
2021/12/16 15:42:52;;;;;;;16.17;10.27;;;8.20;73.30;;;;;;5098350;28;20103;-51
2021/12/16 15:45:31;;;;;;;15.60;10.38;;;8.20;73.40;;;;;;5098112;28;20036;-51
2021/12/16 15:48:03;;;;;;;14.57;9.63;;;8.10;73.50;;;;;;5098663;28;20020;-49
2021/12/16 15:50:30;;;;;;;16.58;10.48;;;8.10;73.50;;;;;;5098651;28;20052;-50
2021/12/16 15:52:58;;;;;;;16.50;10.57;;;8.00;73.60;;;;;;5098355;28;20028;-54
2021/12/16 15:55:35;;;;;;;16.55;10.35;;;8.00;73.70;;;;;;5098618;28;20440;-50
2021/12/16 15:58:06;;;;;;;15.40;10.05;;;8.00;73.80;;;;;;5098075;28;20024;-54
2021/12/16 16:00:34;;;;;;;15.25;10.50;;;7.90;73.80;;;;;;5098217;28;20036;-51
2021/12/16 16:03:00;;;;;;;17.10;11.50;;;7.90;73.80;;;;;;5098119;28;20122;-52
2021/12/16 16:05:35;;;;;;;17.45;10.73;;;7.80;73.80;;;;;;5098257;28;20365;-51
2021/12/16 16:08:04;;;;;;;15.77;10.88;;;7.80;73.90;;;;;;5098487;28;20098;-53
2021/12/16 16:10:31;;;;;;;18.67;11.60;;;7.80;73.90;;;;;;5098619;28;20073;-50
2021/12/16 16:13:11;;;;;;;15.88;11.27;;;7.70;73.90;;;;;;5098178;28;20069;-50
2021/12/16 16:15:38;;;;;;;16.15;9.90;;;7.70;74.10;;;;;;5098156;28;20034;-52
2021/12/16 16:20:56;;;;;;;16.40;9.93;;;7.60;74.10;;;;;;5097747;28;20073;-50
2021/12/16 16:23:25;;;;;;;16.55;10.63;;;7.50;74.00;;;;;;5098071;28;20131;-49
2021/12/16 16:25:52;;;;;;;16.38;11.55;;;7.50;74.20;;;;;;5098063;28;20364;-52
2021/12/16 16:28:24;;;;;;;16.05;10.63;;;7.50;74.30;;;;;;5097793;28;20024;-55
2021/12/16 16:30:52;;;;;;;17.30;10.82;;;7.40;74.30;;;;;;5098079;28;20030;-52
2021/12/16 16:33:20;;;;;;;15.32;10.30;;;7.40;74.30;;;;;;5098041;28;20467;-50
2021/12/16 16:36:01;;;;;;;15.27;10.45;;;7.30;74.20;;;;;;5096371;28;20092;-49
2021/12/16 16:38:32;;;;;;;17.48;11.10;;;7.30;74.30;;;;;;5098176;28;20032;-50
2021/12/16 16:41:03;;;;;;;16.27;10.70;;;7.20;74.30;;;;;;5097461;28;20027;-54
2021/12/16 16:43:36;;;;;;;15.80;10.77;;;7.20;74.30;;;;;;5097415;28;20020;-49
2021/12/16 16:46:08;;;;;;;14.57;10.35;;;7.10;74.40;;;;;;5097744;28;20024;-54
2021/12/16 16:48:46;;;;;;;15.73;10.68;;;7.10;74.40;;;;;;5097761;28;20028;-51
2021/12/16 16:51:16;;;;;;;15.35;10.23;;;7.10;74.40;;;;;;5097528;28;20099;-50
2021/12/16 16:54:10;;;;;;;18.73;11.93;;;7.00;74.30;;;;;;5097705;28;20099;-51
2021/12/16 16:56:59;;;;;;;17.48;12.20;;;6.90;74.50;;;;;;5090545;28;20036;-53
2021/12/16 16:59:54;;;;;;;15.52;11.55;;;6.90;74.50;;;;;;5097302;28;20105;-51